createdAt,value
2022-12-07T00:02:15.508Z,15.17
2022-12-07T00:04:42.036Z,14.94
2022-12-07T00:07:09.810Z,14.52
2022-12-07T00:09:36.226Z,14.95
2022-12-07T00:12:02.647Z,14.59
2022-12-07T00:14:31.938Z,15.18
2022-12-07T00:16:58.455Z,14.39
2022-12-07T00:22:15.175Z,14.90
2022-12-07T00:24:41.674Z,15.67
2022-12-07T00:27:08.127Z,15.64
2022-12-07T00:29:34.553Z,15.54
2022-12-07T00:32:01.005Z,14.92
2022-12-07T00:34:27.440Z,14.64
2022-12-07T00:36:53.833Z,13.69
2022-12-07T00:39:20.209Z,13.82
2022-12-07T00:41:46.691Z,13.73
2022-12-07T00:44:13.160Z,14.00
2022-12-07T00:46:40.215Z,14.74
2022-12-07T00:49:06.656Z,14.66
2022-12-07T00:51:33.040Z,13.22
2022-12-07T00:53:59.481Z,14.03
2022-12-07T00:56:25.931Z,13.31
2022-12-07T00:58:53.308Z,14.14
2022-12-07T01:01:19.789Z,13.96
2022-12-07T01:03:46.232Z,13.56
2022-12-07T01:06:12.658Z,13.37
2022-12-07T01:08:39.168Z,13.75
2022-12-07T01:11:05.644Z,13.96
2022-12-07T01:13:32.191Z,13.59
2022-12-07T01:16:08.285Z,13.14
2022-12-07T01:18:34.717Z,13.56
2022-12-07T01:21:01.156Z,13.23
2022-12-07T01:23:27.590Z,13.95
2022-12-07T01:25:53.947Z,13.66
2022-12-07T01:28:20.281Z,13.96
2022-12-07T01:30:50.769Z,14.17
2022-12-07T01:33:17.472Z,16.25
2022-12-07T01:36:03.880Z,17.28
2022-12-07T01:38:30.435Z,19.26
2022-12-07T01:40:56.830Z,19.60
2022-12-07T01:43:23.233Z,19.46
2022-12-07T01:45:49.788Z,19.25
2022-12-07T01:48:16.197Z,17.79
2022-12-07T01:50:42.619Z,18.32
2022-12-07T01:53:09.014Z,17.47
2022-12-07T01:55:35.453Z,17.25
2022-12-07T01:58:01.826Z,17.28
2022-12-07T02:00:28.254Z,16.87
2022-12-07T02:02:54.695Z,15.60
2022-12-07T02:05:24.174Z,14.08
2022-12-07T02:07:54.029Z,11.90
2022-12-07T02:10:20.440Z,12.70
2022-12-07T02:12:46.785Z,12.62
2022-12-07T02:15:13.126Z,12.57
2022-12-07T02:17:39.574Z,12.32
2022-12-07T02:20:05.986Z,12.28
2022-12-07T02:22:41.243Z,12.33
2022-12-07T02:25:07.663Z,12.87
2022-12-07T02:27:34.054Z,12.39
2022-12-07T02:30:00.770Z,11.90
2022-12-07T02:32:27.362Z,11.87
2022-12-07T02:34:53.760Z,12.55
2022-12-07T02:37:20.094Z,11.81
2022-12-07T02:42:26.786Z,12.73
2022-12-07T02:44:53.136Z,12.49
2022-12-07T02:47:19.480Z,12.52
2022-12-07T02:49:49.446Z,12.88
2022-12-07T02:52:15.824Z,12.82
2022-12-07T02:54:42.237Z,12.79
2022-12-07T02:57:08.639Z,12.97
2022-12-07T02:59:35.040Z,13.25
2022-12-07T03:02:01.522Z,13.43
2022-12-07T03:04:28.048Z,13.16
2022-12-07T03:06:56.473Z,13.70
2022-12-07T03:09:22.856Z,14.42
2022-12-07T03:11:49.249Z,14.12
2022-12-07T03:14:15.617Z,13.75
2022-12-07T03:16:41.969Z,13.31
2022-12-07T03:19:08.422Z,13.71
2022-12-07T03:21:34.776Z,13.29
2022-12-07T03:24:01.145Z,13.52
2022-12-07T03:26:27.610Z,12.99
2022-12-07T03:28:54.015Z,12.81
2022-12-07T03:31:20.373Z,12.25
2022-12-07T03:33:47.042Z,13.17
2022-12-07T03:36:13.380Z,12.34
2022-12-07T03:41:27.113Z,12.63
2022-12-07T03:44:13.642Z,12.82
2022-12-07T03:46:40.977Z,13.63
2022-12-07T03:49:07.494Z,12.94
2022-12-07T03:51:33.975Z,12.70
2022-12-07T03:54:00.371Z,12.59
2022-12-07T03:56:26.767Z,12.77
2022-12-07T03:58:53.171Z,12.77
2022-12-07T04:01:19.664Z,13.03
2022-12-07T04:03:46.078Z,12.93
2022-12-07T04:06:12.468Z,12.68
2022-12-07T04:08:38.803Z,12.80
2022-12-07T04:11:05.175Z,13.33
2022-12-07T04:13:31.525Z,13.32
2022-12-07T04:15:57.948Z,13.31
2022-12-07T04:21:04.643Z,13.56
2022-12-07T04:23:30.989Z,12.98
2022-12-07T04:25:57.358Z,13.45
2022-12-07T04:28:23.809Z,13.66
2022-12-07T04:30:50.158Z,12.94
2022-12-07T04:33:16.553Z,12.85
2022-12-07T04:38:33.785Z,12.87
2022-12-07T04:41:00.195Z,13.05
2022-12-07T04:43:26.542Z,13.09
2022-12-07T04:45:53.064Z,13.58
2022-12-07T04:48:19.452Z,13.47
2022-12-07T04:50:46.479Z,13.38
2022-12-07T04:53:12.999Z,13.51
2022-12-07T04:55:39.352Z,12.81
2022-12-07T04:58:05.751Z,13.23
2022-12-07T05:00:33.487Z,13.35
2022-12-07T05:02:59.985Z,13.68
2022-12-07T05:05:26.396Z,13.29
2022-12-07T05:07:52.848Z,13.90
2022-12-07T05:10:19.242Z,13.16
2022-12-07T05:12:45.732Z,13.85
2022-12-07T05:15:12.089Z,13.86
2022-12-07T05:17:38.508Z,13.33
2022-12-07T05:20:05.253Z,13.25
2022-12-07T05:22:33.156Z,13.48
2022-12-07T05:24:59.528Z,12.69
2022-12-07T05:27:28.088Z,12.94
2022-12-07T05:29:54.465Z,13.08
2022-12-07T05:32:20.875Z,13.73
2022-12-07T05:34:47.227Z,13.21
2022-12-07T05:37:13.619Z,13.03
2022-12-07T05:39:39.943Z,13.31
2022-12-07T05:42:06.290Z,12.68
2022-12-07T05:44:32.933Z,13.19
2022-12-07T05:47:19.811Z,12.79
2022-12-07T05:49:46.246Z,13.00
2022-12-07T05:52:12.655Z,12.98
2022-12-07T05:54:43.820Z,12.95
2022-12-07T05:57:10.256Z,13.24
2022-12-07T06:02:20.634Z,12.59
2022-12-07T06:04:47.103Z,13.04
2022-12-07T06:07:13.537Z,13.19
2022-12-07T06:09:40.024Z,13.27
2022-12-07T06:12:06.456Z,13.24
2022-12-07T06:14:32.883Z,13.26
2022-12-07T06:17:01.474Z,13.05
2022-12-07T06:19:27.935Z,13.28
2022-12-07T06:21:54.466Z,13.41
2022-12-07T06:24:21.240Z,13.31
2022-12-07T06:26:47.678Z,13.04
2022-12-07T06:29:14.047Z,13.69
2022-12-07T06:31:40.536Z,14.06
2022-12-07T06:34:06.938Z,13.34
2022-12-07T06:36:33.329Z,13.45
2022-12-07T06:38:59.711Z,12.96
2022-12-07T06:41:26.174Z,12.90
2022-12-07T06:43:55.970Z,13.06
2022-12-07T06:46:25.159Z,13.41
2022-12-07T06:48:51.758Z,13.25
2022-12-07T06:51:18.185Z,13.31
2022-12-07T06:53:44.753Z,12.75
2022-12-07T06:56:11.165Z,13.67
2022-12-07T06:58:37.639Z,13.55
2022-12-07T07:01:04.204Z,13.33
2022-12-07T07:03:30.699Z,14.30
2022-12-07T07:05:57.103Z,13.62
2022-12-07T07:08:24.136Z,14.54
2022-12-07T07:10:51.671Z,14.28
2022-12-07T07:13:18.152Z,14.30
2022-12-07T07:15:46.722Z,14.50
2022-12-07T07:18:13.154Z,14.39
2022-12-07T07:20:39.550Z,14.25
2022-12-07T07:25:46.466Z,14.25
2022-12-07T07:28:16.586Z,14.99
2022-12-07T07:30:43.327Z,15.10
2022-12-07T07:33:09.946Z,14.38
2022-12-07T07:35:36.477Z,13.84
2022-12-07T07:38:02.920Z,14.54
2022-12-07T07:40:29.432Z,15.61
2022-12-07T07:42:55.851Z,14.62
2022-12-07T07:45:22.518Z,14.35
2022-12-07T07:47:48.941Z,14.19
2022-12-07T07:50:17.857Z,14.42
2022-12-07T07:52:44.338Z,14.43
2022-12-07T07:55:11.867Z,15.26
2022-12-07T07:57:38.311Z,15.66
2022-12-07T08:00:05.018Z,15.73
2022-12-07T08:02:31.635Z,16.27
2022-12-07T08:05:00.483Z,15.78
2022-12-07T08:07:26.999Z,16.06
2022-12-07T08:12:33.759Z,15.63
2022-12-07T08:15:00.231Z,15.53
2022-12-07T08:17:26.628Z,15.27
2022-12-07T08:19:54.630Z,15.37
2022-12-07T08:22:21.114Z,15.57
2022-12-07T08:24:51.708Z,14.70
2022-12-07T08:27:18.210Z,15.64
2022-12-07T08:29:44.567Z,14.88
2022-12-07T08:32:11.323Z,15.53
2022-12-07T08:34:40.776Z,15.37
2022-12-07T08:37:07.194Z,15.27
2022-12-07T08:39:34.596Z,15.27
2022-12-07T08:42:01.051Z,15.19
2022-12-07T08:44:28.519Z,15.12
2022-12-07T08:46:55.006Z,14.66
2022-12-07T08:52:01.781Z,14.88
2022-12-07T08:54:29.288Z,15.80
2022-12-07T08:56:59.009Z,15.33
2022-12-07T08:59:29.182Z,15.23
2022-12-07T09:02:00.295Z,14.94
2022-12-07T09:04:27.009Z,15.23
2022-12-07T09:06:53.562Z,15.84
2022-12-07T09:09:22.278Z,16.53
2022-12-07T09:11:49.786Z,15.88
2022-12-07T09:14:16.243Z,15.44
2022-12-07T09:16:42.618Z,16.07
2022-12-07T09:19:09.418Z,17.05
2022-12-07T09:21:35.819Z,16.11
2022-12-07T09:24:02.260Z,16.17
2022-12-07T09:26:30.795Z,15.67
2022-12-07T09:28:57.646Z,15.69
2022-12-07T09:31:25.477Z,15.86
2022-12-07T09:33:53.088Z,15.72
2022-12-07T09:36:19.611Z,15.48
2022-12-07T09:38:48.539Z,14.94
2022-12-07T09:41:17.334Z,15.64
2022-12-07T09:43:43.868Z,15.28
2022-12-07T09:46:10.311Z,15.50
2022-12-07T09:48:36.787Z,15.18
2022-12-07T09:51:03.273Z,15.46
2022-12-07T09:53:29.752Z,16.28
2022-12-07T09:55:56.643Z,20.19
2022-12-07T09:58:23.071Z,17.70
2022-12-07T10:00:49.470Z,16.51
2022-12-07T10:03:15.900Z,16.46
2022-12-07T10:05:43.671Z,15.39
2022-12-07T10:08:10.151Z,15.11
2022-12-07T10:10:38.560Z,15.39
2022-12-07T10:13:05.192Z,15.38
2022-12-07T10:15:31.894Z,15.71
2022-12-07T10:17:58.357Z,15.76
2022-12-07T10:20:27.294Z,16.17
2022-12-07T10:22:54.461Z,16.94
2022-12-07T10:25:21.105Z,16.58
2022-12-07T10:27:48.857Z,16.35
2022-12-07T10:30:17.261Z,16.16
2022-12-07T10:32:44.726Z,15.58
2022-12-07T10:35:11.584Z,16.10
2022-12-07T10:37:38.110Z,16.86
2022-12-07T10:40:04.609Z,17.22
2022-12-07T10:42:31.176Z,16.51
2022-12-07T10:44:57.704Z,16.20
2022-12-07T10:47:24.236Z,16.49
2022-12-07T10:49:50.697Z,16.05
2022-12-07T10:52:17.169Z,16.15
2022-12-07T10:54:46.017Z,16.39
2022-12-07T10:57:12.491Z,15.80
2022-12-07T10:59:39.735Z,17.27
2022-12-07T11:02:06.245Z,17.30
2022-12-07T11:04:32.766Z,16.53
2022-12-07T11:07:00.430Z,16.87
2022-12-07T11:09:51.815Z,17.34
2022-12-07T11:12:13.326Z,16.68
2022-12-07T11:14:39.805Z,17.41
2022-12-07T11:17:15.515Z,17.06
2022-12-07T11:19:42.157Z,16.89
2022-12-07T11:22:08.617Z,17.29
2022-12-07T11:24:35.737Z,17.68
2022-12-07T11:27:03.166Z,17.66
2022-12-07T11:29:30.943Z,17.41
2022-12-07T11:31:58.005Z,17.65
2022-12-07T11:34:27.486Z,17.70
2022-12-07T11:36:54.278Z,17.07
2022-12-07T11:39:20.989Z,17.60
2022-12-07T11:41:48.052Z,19.45
2022-12-07T11:44:16.964Z,19.22
2022-12-07T11:46:43.405Z,18.12
2022-12-07T11:49:14.160Z,18.38
2022-12-07T11:51:40.656Z,18.31
2022-12-07T11:54:07.095Z,17.95
2022-12-07T11:56:33.507Z,18.76
2022-12-07T11:59:00.025Z,18.76
2022-12-07T12:01:26.538Z,18.80
2022-12-07T12:03:53.675Z,18.82
2022-12-07T12:06:20.226Z,19.09
2022-12-07T12:11:33.322Z,19.69
2022-12-07T12:16:46.147Z,19.34
2022-12-07T12:22:03.376Z,19.62
2022-12-07T12:24:31.212Z,19.14
2022-12-07T12:26:57.641Z,19.38
2022-12-07T12:29:24.022Z,19.76
2022-12-07T12:31:54.328Z,19.74
2022-12-07T12:34:21.052Z,19.29
2022-12-07T12:36:48.638Z,19.32
2022-12-07T12:39:15.158Z,19.39
2022-12-07T12:41:41.641Z,19.40
2022-12-07T12:44:08.122Z,19.55
2022-12-07T12:46:45.177Z,19.44
2022-12-07T12:49:15.782Z,20.12
2022-12-07T12:51:42.175Z,19.63
2022-12-07T12:54:08.618Z,18.97
2022-12-07T12:56:35.110Z,19.76
2022-12-07T12:59:01.476Z,20.89
2022-12-07T13:01:28.023Z,19.96
2022-12-07T13:03:54.502Z,20.05
2022-12-07T13:06:20.917Z,19.36
2022-12-07T13:08:47.390Z,19.08
2022-12-07T13:11:13.820Z,19.30
2022-12-07T13:13:40.318Z,19.10
2022-12-07T13:16:09.835Z,18.96
2022-12-07T13:18:36.281Z,18.76
2022-12-07T13:21:02.692Z,18.48
2022-12-07T13:23:29.220Z,19.13
2022-12-07T13:26:04.262Z,18.35
2022-12-07T13:28:30.671Z,18.83
2022-12-07T13:31:00.870Z,18.56
2022-12-07T13:33:27.415Z,18.30
2022-12-07T13:35:53.932Z,18.08
2022-12-07T13:38:20.362Z,18.56
2022-12-07T13:40:46.757Z,17.70
2022-12-07T13:43:13.165Z,17.68
2022-12-07T13:45:39.703Z,18.33
2022-12-07T13:48:06.390Z,17.53
2022-12-07T13:50:35.822Z,17.51
2022-12-07T13:53:02.305Z,17.86
2022-12-07T13:55:28.711Z,17.08
2022-12-07T13:57:55.131Z,17.29
2022-12-07T14:00:21.527Z,16.89
2022-12-07T14:02:48.253Z,16.94
2022-12-07T14:05:14.879Z,17.94
2022-12-07T14:07:41.501Z,17.02
2022-12-07T14:10:09.337Z,17.43
2022-12-07T14:12:35.789Z,17.64
2022-12-07T14:15:02.612Z,18.27
2022-12-07T14:17:29.447Z,18.47
2022-12-07T14:19:55.868Z,19.11
2022-12-07T14:22:22.293Z,18.35
2022-12-07T14:24:48.731Z,18.97
2022-12-07T14:27:16.601Z,19.79
2022-12-07T14:29:43.003Z,18.83
2022-12-07T14:32:09.357Z,18.81
2022-12-07T14:34:35.816Z,18.12
2022-12-07T14:37:02.226Z,17.16
2022-12-07T14:39:28.619Z,16.67
2022-12-07T14:41:55.088Z,17.15
2022-12-07T14:44:24.076Z,18.11
2022-12-07T14:49:38.969Z,17.41
2022-12-07T14:54:51.778Z,17.89
2022-12-07T14:57:18.255Z,17.25
2022-12-07T14:59:45.373Z,17.75
2022-12-07T15:02:11.907Z,17.58
2022-12-07T15:04:38.315Z,17.62
2022-12-07T15:07:04.801Z,17.82
2022-12-07T15:09:31.215Z,17.94
2022-12-07T15:11:57.670Z,18.00
2022-12-07T15:14:24.101Z,17.29
2022-12-07T15:17:08.534Z,17.30
2022-12-07T15:19:36.328Z,17.49
2022-12-07T15:22:02.760Z,17.97
2022-12-07T15:24:29.141Z,17.22
2022-12-07T15:26:55.517Z,17.38
2022-12-07T15:29:23.644Z,18.47
2022-12-07T15:31:58.391Z,17.67
2022-12-07T15:34:26.191Z,18.25
2022-12-07T15:36:52.672Z,17.87
2022-12-07T15:39:19.097Z,18.08
2022-12-07T15:41:45.472Z,18.81
2022-12-07T15:44:11.930Z,19.00
2022-12-07T15:46:38.589Z,18.51
2022-12-07T15:49:05.181Z,18.87
2022-12-07T15:51:31.587Z,18.16
2022-12-07T15:53:57.973Z,18.39
2022-12-07T15:56:24.399Z,19.46
2022-12-07T15:58:53.894Z,20.21
2022-12-07T16:01:20.415Z,19.91
2022-12-07T16:03:48.188Z,19.59
2022-12-07T16:06:14.630Z,17.98
2022-12-07T16:08:41.008Z,18.01
2022-12-07T16:11:07.417Z,17.94
2022-12-07T16:13:33.829Z,17.18
2022-12-07T16:16:00.340Z,17.63
2022-12-07T16:18:26.763Z,18.36
2022-12-07T16:20:54.596Z,17.48
2022-12-07T16:26:01.351Z,18.44
2022-12-07T16:28:30.859Z,17.36
2022-12-07T16:30:57.551Z,17.22
2022-12-07T16:33:23.934Z,16.74
2022-12-07T16:35:50.519Z,17.73
2022-12-07T16:38:18.249Z,17.29
2022-12-07T16:40:44.635Z,17.73
2022-12-07T16:43:11.783Z,22.28
2022-12-07T16:45:38.556Z,17.31
2022-12-07T16:48:04.969Z,15.99
2022-12-07T16:50:32.604Z,16.30
2022-12-07T16:52:59.005Z,16.54
2022-12-07T16:55:25.401Z,16.27
2022-12-07T16:57:51.750Z,16.82
2022-12-07T17:00:18.102Z,17.25
2022-12-07T17:02:44.587Z,16.79
2022-12-07T17:05:12.337Z,17.15
2022-12-07T17:10:22.098Z,16.89
2022-12-07T17:12:48.501Z,16.29
2022-12-07T17:15:14.845Z,19.69
2022-12-07T17:17:41.212Z,18.68
2022-12-07T17:20:10.432Z,17.56
2022-12-07T17:22:36.841Z,16.66
2022-12-07T17:25:03.433Z,17.56
2022-12-07T17:27:30.083Z,16.89
2022-12-07T17:29:56.469Z,15.98
2022-12-07T17:32:22.867Z,16.49
2022-12-07T17:34:49.253Z,16.51
2022-12-07T17:37:15.651Z,16.65
2022-12-07T17:39:46.929Z,16.27
2022-12-07T17:42:13.259Z,16.42
2022-12-07T17:44:39.606Z,16.72
2022-12-07T17:47:06.014Z,15.91
2022-12-07T17:49:32.360Z,16.32
2022-12-07T17:52:00.412Z,15.29
2022-12-07T17:54:26.883Z,15.18
2022-12-07T17:56:53.265Z,15.79
2022-12-07T17:59:21.743Z,16.04
2022-12-07T18:01:48.164Z,15.54
2022-12-07T18:04:15.657Z,15.22
2022-12-07T18:06:42.890Z,29.88
2022-12-07T18:09:10.619Z,26.15
2022-12-07T18:11:37.199Z,21.73
2022-12-07T18:14:07.308Z,20.95
2022-12-07T18:16:39.935Z,25.36
2022-12-07T18:19:06.798Z,22.44
2022-12-07T18:21:33.157Z,18.33
2022-12-07T18:24:00.256Z,17.80
2022-12-07T18:26:26.861Z,17.34
2022-12-07T18:28:53.414Z,16.50
2022-12-07T18:31:22.859Z,16.50
2022-12-07T18:33:51.081Z,16.06
2022-12-07T18:36:17.495Z,16.71
2022-12-07T18:38:45.231Z,17.08
2022-12-07T18:41:11.620Z,18.49
2022-12-07T18:43:38.227Z,18.69
2022-12-07T18:46:04.688Z,18.57
2022-12-07T18:48:31.118Z,19.67
2022-12-07T18:50:57.581Z,19.11
2022-12-07T18:53:23.965Z,18.82
2022-12-07T18:55:50.474Z,19.35
2022-12-07T18:58:16.852Z,18.89
2022-12-07T19:00:43.232Z,18.79
2022-12-07T19:03:09.593Z,19.63
2022-12-07T19:05:35.965Z,20.44
2022-12-07T19:08:02.856Z,20.34
2022-12-07T19:10:29.294Z,20.41
2022-12-07T19:12:55.714Z,19.58
2022-12-07T19:15:22.374Z,19.08
2022-12-07T19:17:48.813Z,18.88
2022-12-07T19:20:15.167Z,19.34
2022-12-07T19:22:41.548Z,19.75
2022-12-07T19:25:12.517Z,19.74
2022-12-07T19:27:38.899Z,20.82
2022-12-07T19:30:05.409Z,20.44
2022-12-07T19:32:31.784Z,20.56
2022-12-07T19:35:01.009Z,19.87
2022-12-07T19:37:27.671Z,20.27
2022-12-07T19:39:54.601Z,20.40
2022-12-07T19:42:21.061Z,19.29
2022-12-07T19:44:47.580Z,17.59
2022-12-07T19:47:14.262Z,17.84
2022-12-07T19:49:40.957Z,18.87
2022-12-07T19:52:07.305Z,18.14
2022-12-07T19:54:33.669Z,17.96
2022-12-07T19:57:00.015Z,20.66
2022-12-07T19:59:26.402Z,23.74
2022-12-07T20:01:52.797Z,21.36
2022-12-07T20:04:23.544Z,21.04
2022-12-07T20:06:49.893Z,27.59
2022-12-07T20:09:16.417Z,41.85
2022-12-07T20:11:42.760Z,27.08
2022-12-07T20:14:09.484Z,27.80
2022-12-07T20:16:35.882Z,31.80
2022-12-07T20:19:02.369Z,23.74
2022-12-07T20:21:28.781Z,20.11
2022-12-07T20:23:55.155Z,18.45
2022-12-07T20:26:21.546Z,16.81
2022-12-07T20:28:47.952Z,17.37
2022-12-07T20:31:14.480Z,17.69
2022-12-07T20:33:41.000Z,17.15
2022-12-07T20:36:07.377Z,17.14
2022-12-07T20:38:33.829Z,18.18
2022-12-07T20:41:00.207Z,18.66
2022-12-07T20:43:26.558Z,19.62
2022-12-07T20:45:53.036Z,19.46
2022-12-07T20:48:19.498Z,19.31
2022-12-07T20:50:46.096Z,19.83
2022-12-07T20:53:12.529Z,20.40
2022-12-07T20:55:38.863Z,20.31
2022-12-07T20:58:05.266Z,19.20
2022-12-07T21:00:31.716Z,18.62
2022-12-07T21:02:58.160Z,18.42
2022-12-07T21:05:24.618Z,17.95
2022-12-07T21:07:51.263Z,19.99
2022-12-07T21:10:18.354Z,19.57
2022-12-07T21:12:48.155Z,21.39
2022-12-07T21:15:16.564Z,22.74
2022-12-07T21:17:42.989Z,22.33
2022-12-07T21:20:10.344Z,21.79
2022-12-07T21:22:37.549Z,22.13
2022-12-07T21:25:04.189Z,20.67
2022-12-07T21:27:30.812Z,20.04
2022-12-07T21:29:57.228Z,20.84
2022-12-07T21:32:23.644Z,20.50
2022-12-07T21:34:50.065Z,19.43
2022-12-07T21:37:16.459Z,20.85
2022-12-07T21:39:42.799Z,20.57
2022-12-07T21:42:11.586Z,20.55
2022-12-07T21:44:37.954Z,20.65
2022-12-07T21:47:04.512Z,21.10
2022-12-07T21:49:30.960Z,20.18
2022-12-07T21:51:59.749Z,20.69
2022-12-07T21:54:26.408Z,19.96
2022-12-07T21:56:55.175Z,20.63
2022-12-07T21:59:21.675Z,20.18
2022-12-07T22:01:48.347Z,20.79
2022-12-07T22:04:14.798Z,21.22
2022-12-07T22:06:41.209Z,21.10
2022-12-07T22:09:07.613Z,22.23
2022-12-07T22:11:35.947Z,21.32
2022-12-07T22:14:06.712Z,20.19
2022-12-07T22:16:36.444Z,20.72
2022-12-07T22:19:02.917Z,20.87
2022-12-07T22:21:29.341Z,21.68
2022-12-07T22:23:55.961Z,20.99
2022-12-07T22:26:24.531Z,21.63
2022-12-07T22:28:51.278Z,21.12
2022-12-07T22:31:17.729Z,21.37
2022-12-07T22:33:44.085Z,21.56
2022-12-07T22:36:10.436Z,22.10
2022-12-07T22:38:36.806Z,21.23
2022-12-07T22:41:03.502Z,21.18
2022-12-07T22:43:29.900Z,20.98
2022-12-07T22:45:56.879Z,20.65
2022-12-07T22:48:23.233Z,20.60
2022-12-07T22:50:49.616Z,21.17
2022-12-07T22:53:15.998Z,21.60
2022-12-07T22:55:42.381Z,21.55
2022-12-07T22:58:10.254Z,21.12
2022-12-07T23:00:36.592Z,21.00
2022-12-07T23:03:02.996Z,19.55
2022-12-07T23:05:29.742Z,19.41
2022-12-07T23:07:56.088Z,19.45
2022-12-07T23:10:23.494Z,20.84
2022-12-07T23:12:50.109Z,19.71
2022-12-07T23:15:16.502Z,19.28
2022-12-07T23:17:43.051Z,20.04
2022-12-07T23:20:09.552Z,19.97
2022-12-07T23:22:35.982Z,20.05
2022-12-07T23:25:02.860Z,20.03
2022-12-07T23:30:20.217Z,19.22
2022-12-07T23:32:46.719Z,19.56
2022-12-07T23:35:13.262Z,19.91
2022-12-07T23:37:39.608Z,19.79
2022-12-07T23:40:06.032Z,19.56
2022-12-07T23:42:32.372Z,19.93
2022-12-07T23:44:58.727Z,21.32
2022-12-07T23:47:25.125Z,35.77
2022-12-07T23:49:51.563Z,54.70
2022-12-07T23:52:17.952Z,26.95
2022-12-07T23:54:44.497Z,20.56
2022-12-07T23:57:10.931Z,19.73
2022-12-07T23:59:37.604Z,19.35
